Time;durP1;ratioP1;P1;durP2;ratioP2;P2;SDS_P1;SDS_P2;PMS_P1;PMS_P2;Temp;Humidity;BMP_temperature;BMP_pressure;BME280_temperature;BME280_humidity;BME280_pressure;Samples;Min_cycle;Max_cycle;Signal;HPM_P1;HPM_P2
2022/03/05 00:00:17;;;;;;;4.10;1.60;;;-4.80;1.40;;;-4.12;100.00;95528.92;618888;226;42530;-75
2022/03/05 00:03:01;;;;;;;2.40;1.50;;;-4.70;1.40;;;-3.95;100.00;95525.63;645948;212;31785;-77
2022/03/05 00:05:45;;;;;;;1.50;0.90;;;-4.60;1.40;;;-4.04;100.00;95525.05;647972;216;42790;-75
2022/03/05 00:08:32;;;;;;;2.33;1.80;;;-4.70;1.40;;;-4.19;100.00;95528.66;647055;216;31621;-78
2022/03/05 00:11:21;;;;;;;2.53;1.33;;;-4.80;1.40;;;-4.17;100.00;95532.33;646662;216;31820;-75
2022/03/05 00:14:08;;;;;;;3.78;2.03;;;-4.80;1.40;;;-4.06;100.00;95529.80;642740;217;31609;-77
2022/03/05 00:16:51;;;;;;;4.07;2.33;;;-4.60;1.40;;;-4.03;100.00;95531.49;647730;216;31588;-77
2022/03/05 00:19:32;;;;;;;4.82;1.85;;;-4.60;1.40;;;-4.13;100.00;95532.42;620478;226;32004;-77
2022/03/05 00:22:14;;;;;;;4.72;1.58;;;-4.70;1.40;;;-4.05;100.00;95531.61;648247;212;42196;-77
2022/03/05 00:25:01;;;;;;;3.80;1.50;;;-4.70;1.40;;;-4.09;100.00;95534.87;619889;222;31878;-74
2022/03/05 00:27:43;;;;;;;4.40;1.80;;;-4.70;1.40;;;-4.22;100.00;95534.70;646477;212;31581;-76
2022/03/05 00:30:24;;;;;;;3.10;1.90;;;-4.90;1.40;;;-4.38;100.00;95533.47;618510;222;31951;-76
2022/03/05 00:35:57;;;;;;;4.62;2.05;;;-5.00;1.40;;;-4.58;100.00;95533.76;646560;216;31639;-75
2022/03/05 00:38:45;;;;;;;2.60;1.50;;;-5.10;1.40;;;-4.68;100.00;95538.31;648543;212;31594;-76
2022/03/05 00:41:29;;;;;;;1.80;1.40;;;-5.20;1.40;;;-4.73;100.00;95530.75;647723;212;31611;-76
2022/03/05 00:44:16;;;;;;;1.30;1.20;;;-5.30;1.40;;;-4.80;100.00;95538.11;647055;216;31950;-76
2022/03/05 00:46:59;;;;;;;3.05;2.12;;;-5.20;1.40;;;-4.74;100.00;95532.66;647688;212;31529;-74
2022/03/05 00:49:41;;;;;;;2.67;1.40;;;-5.30;1.40;;;-4.51;100.00;95530.74;646194;216;31568;-74
2022/03/05 00:52:29;;;;;;;2.65;1.45;;;-5.00;1.40;;;-4.51;100.00;95528.52;647530;212;31554;-76
2022/03/05 00:55:13;;;;;;;2.00;1.40;;;-4.90;1.40;;;-4.62;100.00;95528.22;648825;216;42744;-77
2022/03/05 00:58:01;;;;;;;3.10;1.60;;;-5.00;1.40;;;-4.55;100.00;95529.84;647801;212;31575;-76
2022/03/05 01:00:49;;;;;;;2.55;1.67;;;-4.90;1.40;;;-4.55;100.00;95529.69;647426;216;31617;-77
2022/03/05 01:03:31;;;;;;;1.00;0.90;;;-5.10;1.40;;;-4.68;100.00;95527.75;620201;222;31901;-76
2022/03/05 01:06:16;;;;;;;2.55;0.98;;;-5.30;1.40;;;-4.73;100.00;95520.44;645856;216;31940;-74
2022/03/05 01:08:58;;;;;;;1.33;1.23;;;-5.40;1.40;;;-4.72;100.00;95520.47;646710;216;31569;-76
2022/03/05 01:11:40;;;;;;;3.10;1.15;;;-5.30;1.40;;;-4.64;100.00;95515.25;647049;216;31891;-76
2022/03/05 01:14:22;;;;;;;1.55;1.45;;;-5.20;1.40;;;-4.50;100.00;95516.08;646984;212;32227;-73
2022/03/05 01:17:06;;;;;;;0.80;0.80;;;-5.00;1.40;;;-4.39;100.00;95514.91;647032;216;31630;-77
2022/03/05 01:19:54;;;;;;;3.20;1.95;;;-4.90;1.40;;;-4.27;100.00;95514.00;646026;216;32101;-75
2022/03/05 01:22:36;;;;;;;6.57;2.30;;;-4.70;1.40;;;-4.19;100.00;95514.74;646939;216;31687;-76
2022/03/05 01:25:23;;;;;;;2.40;1.25;;;-4.60;1.40;;;-4.23;100.00;95512.90;620731;226;31897;-76
2022/03/05 01:28:06;;;;;;;2.95;1.90;;;-4.70;1.40;;;-4.18;100.00;95518.23;619277;222;32335;-77
2022/03/05 01:30:51;;;;;;;3.30;1.73;;;-4.80;1.40;;;-4.15;100.00;95512.94;619992;226;31893;-77
2022/03/05 01:35:51;;;;;;;4.35;1.65;;;-4.80;1.40;;;-4.31;100.00;95507.62;647815;212;32256;-76
2022/03/05 01:38:34;;;;;;;4.50;1.73;;;-4.80;1.40;;;-4.32;100.00;95507.49;646481;212;31583;-75
2022/03/05 01:41:22;;;;;;;4.90;1.77;;;-4.80;1.40;;;-4.48;100.00;95510.77;646701;216;31534;-77
2022/03/05 01:44:06;;;;;;;8.23;1.83;;;-4.90;1.40;;;-4.23;100.00;95513.08;646456;216;31891;-76
2022/03/05 01:46:54;;;;;;;0.80;0.73;;;-4.70;1.40;;;-4.16;100.00;95508.24;647954;216;31569;-76
2022/03/05 01:49:41;;;;;;;2.97;1.12;;;-4.70;1.40;;;-4.42;100.00;95517.67;645914;216;31561;-76
2022/03/05 01:52:29;;;;;;;7.70;1.67;;;-4.80;1.40;;;-4.44;100.00;95514.83;647799;216;31585;-77
2022/03/05 01:55:17;;;;;;;2.50;1.73;;;-4.90;1.40;;;-4.46;100.00;95513.92;646524;212;32166;-76
2022/03/05 01:58:04;;;;;;;3.40;1.40;;;-4.90;1.40;;;-4.58;100.00;95513.83;619742;222;32617;-76
2022/03/05 02:00:46;;;;;;;8.00;1.58;;;-5.00;1.40;;;-4.65;100.00;95513.96;646738;215;31627;-77
2022/03/05 02:03:29;;;;;;;1.50;1.05;;;-5.10;1.40;;;-4.48;100.00;95512.66;647108;216;32628;-77
2022/03/05 02:06:11;;;;;;;1.48;1.37;;;-5.10;1.40;;;-4.59;100.00;95512.19;645966;216;31759;-77
2022/03/05 02:08:53;;;;;;;4.65;1.73;;;-5.20;1.40;;;-4.66;100.00;95507.62;646787;216;31682;-76
2022/03/05 02:11:35;;;;;;;4.80;1.45;;;-5.10;1.40;;;-4.72;100.00;95507.08;647590;212;31539;-77
2022/03/05 02:14:23;;;;;;;3.60;2.10;;;-5.20;1.40;;;-4.82;100.00;95501.80;646402;216;31571;-76
2022/03/05 02:17:13;;;;;;;5.65;1.67;;;-5.40;1.40;;;-4.76;100.00;95499.45;648175;216;31539;-76
2022/03/05 02:19:56;;;;;;;1.60;1.02;;;-5.40;1.40;;;-4.64;100.00;95506.18;647138;216;31595;-77
2022/03/05 02:22:40;;;;;;;2.50;0.90;;;-5.20;1.40;;;-4.53;100.00;95505.05;647783;212;31562;-77
2022/03/05 02:25:19;;;;;;;1.87;1.05;;;-5.20;1.40;;;-4.74;100.00;95504.96;647897;216;31578;-77
2022/03/05 02:28:10;;;;;;;4.40;2.30;;;-5.30;1.40;;;-4.81;100.00;95507.53;620287;226;31888;-77
2022/03/05 02:30:57;;;;;;;1.70;1.60;;;-5.20;1.40;;;-4.84;100.00;95510.84;647403;216;31864;-76
2022/03/05 02:35:53;;;;;;;2.12;1.70;;;-5.30;1.40;;;-4.86;100.00;95506.95;645732;212;31544;-75
2022/03/05 02:38:40;;;;;;;2.20;1.55;;;-5.30;1.40;;;-5.01;100.00;95504.76;618279;222;31924;-78
2022/03/05 02:41:28;;;;;;;2.45;1.70;;;-5.40;1.40;;;-4.97;100.00;95502.63;646294;216;31873;-75
2022/03/05 02:44:10;;;;;;;2.53;1.00;;;-5.40;1.40;;;-5.05;100.00;95493.23;646408;213;31630;-75
2022/03/05 02:46:58;;;;;;;1.10;1.00;;;-5.50;1.40;;;-5.09;100.00;95489.03;620727;226;32065;-76
2022/03/05 02:49:45;;;;;;;1.27;1.02;;;-5.60;1.40;;;-5.17;100.00;95488.67;646588;216;31592;-74
2022/03/05 02:52:33;;;;;;;2.00;1.90;;;-5.60;1.40;;;-5.11;100.00;95483.62;646916;216;31540;-77
2022/03/05 02:55:17;;;;;;;2.05;1.87;;;-5.70;1.40;;;-5.19;100.00;95477.68;646640;212;31674;-76
2022/03/05 02:57:58;;;;;;;2.08;1.50;;;-5.80;1.40;;;-5.23;100.00;95475.73;646814;212;31909;-75
2022/03/05 03:03:18;;;;;;;1.42;1.33;;;-5.60;1.40;;;-5.13;100.00;95480.55;648143;216;31569;-77
2022/03/05 03:05:59;;;;;;;1.30;0.90;;;-5.60;1.40;;;-5.26;100.00;95479.73;646683;216;31606;-77
2022/03/05 03:08:41;;;;;;;2.92;0.82;;;-5.70;1.40;;;-5.36;100.00;95479.98;647736;216;31545;-77
2022/03/05 03:11:24;;;;;;;2.90;2.70;;;-5.80;1.40;;;-5.39;100.00;95474.92;620871;226;31889;-73
2022/03/05 03:14:07;;;;;;;0.50;0.50;;;-5.80;1.40;;;-5.39;100.00;95473.98;647419;216;31548;-76
2022/03/05 03:16:50;;;;;;;2.00;0.70;;;-6.00;1.40;;;-5.66;100.00;95471.38;619828;222;31856;-77
2022/03/05 03:19:37;;;;;;;2.30;1.73;;;-6.10;1.40;;;-5.69;100.00;95469.45;646905;216;31728;-75
2022/03/05 03:22:19;;;;;;;2.55;1.17;;;-6.10;1.40;;;-5.54;100.00;95474.23;619501;226;32020;-76
2022/03/05 03:25:00;;;;;;;1.23;1.12;;;-6.00;1.40;;;-5.80;100.00;95472.66;645600;212;31630;-73
2022/03/05 03:27:44;;;;;;;2.45;1.30;;;-6.20;1.40;;;-5.95;100.00;95473.05;620094;222;32718;-77
2022/03/05 03:30:32;;;;;;;8.23;1.75;;;-6.30;1.40;;;-5.84;100.00;95475.52;646104;216;31568;-76
2022/03/05 03:35:57;;;;;;;3.95;1.70;;;-6.50;1.40;;;-6.06;100.00;95470.47;647115;215;42392;-76
2022/03/05 03:38:45;;;;;;;5.60;1.60;;;-6.40;1.40;;;-6.17;100.00;95468.77;646446;212;31549;-77
2022/03/05 03:41:27;;;;;;;1.40;1.05;;;-6.40;1.40;;;-6.27;100.00;95466.32;647968;216;32649;-78
2022/03/05 03:44:14;;;;;;;0.80;0.73;;;-6.50;1.40;;;-6.28;100.00;95466.83;646697;212;31604;-76
2022/03/05 03:47:02;;;;;;;1.70;1.37;;;-6.60;1.40;;;-6.28;100.00;95468.50;618985;222;31930;-77
2022/03/05 03:49:50;;;;;;;1.10;1.00;;;-6.60;1.40;;;-6.37;100.00;95472.42;647085;216;31588;-74
2022/03/05 03:52:38;;;;;;;1.67;1.50;;;-6.60;1.40;;;-6.26;100.00;95475.47;647899;212;31570;-76
2022/03/05 03:55:26;;;;;;;0.90;0.75;;;-6.50;1.40;;;-6.23;100.00;95473.98;630342;221;42111;-76
2022/03/05 03:58:13;;;;;;;1.80;1.30;;;-6.50;1.40;;;-6.13;100.00;95473.83;647413;216;31727;-77
2022/03/05 04:00:59;;;;;;;1.80;1.70;;;-6.50;1.40;;;-6.06;100.00;95468.53;646923;216;31554;-77
2022/03/05 04:03:41;;;;;;;3.30;0.80;;;-6.60;1.40;;;-6.11;100.00;95479.91;648195;212;31561;-77
2022/03/05 04:08:41;;;;;;;3.90;1.30;;;-6.60;1.40;;;-5.98;100.00;95479.45;619419;225;31864;-75
2022/03/05 04:09:10;;;;;;;1.30;1.15;;;-6.40;1.40;;;-5.83;100.00;95478.53;646025;216;31545;-73
2022/03/05 04:11:51;;;;;;;1.80;0.75;;;-6.30;1.40;;;-5.93;100.00;95474.92;645432;212;31738;-75
2022/03/05 04:14:33;;;;;;;2.40;0.60;;;-6.40;1.40;;;-5.91;100.00;95477.23;646467;216;31553;-75
2022/03/05 04:17:17;;;;;;;2.53;1.40;;;-6.40;1.40;;;-5.97;100.00;95480.59;647231;212;31718;-77
2022/03/05 04:20:00;;;;;;;3.10;0.95;;;-6.40;1.40;;;-6.17;100.00;95482.69;647664;212;31606;-76
2022/03/05 04:22:46;;;;;;;3.28;1.80;;;-6.60;1.40;;;-6.15;100.00;95486.23;646867;212;31593;-73
2022/03/05 04:25:34;;;;;;;1.20;0.90;;;-6.50;1.40;;;-6.25;100.00;95489.90;646924;216;31573;-76
2022/03/05 04:28:18;;;;;;;1.33;1.23;;;-6.60;1.40;;;-6.31;100.00;95489.73;645946;212;31547;-76
2022/03/05 04:31:05;;;;;;;5.20;1.77;;;-6.80;1.40;;;-6.38;100.00;95494.25;647113;212;31502;-77
2022/03/05 04:35:57;;;;;;;1.92;0.77;;;-6.90;1.40;;;-6.49;100.00;95496.95;646916;216;31627;-76
2022/03/05 04:38:44;;;;;;;1.10;0.90;;;-7.00;1.40;;;-6.52;100.00;95492.72;646830;216;31553;-75
2022/03/05 04:41:26;;;;;;;4.00;1.67;;;-6.90;1.40;;;-6.58;100.00;95496.91;646237;216;31569;-75
2022/03/05 04:46:50;;;;;;;2.00;0.80;;;-6.90;1.40;;;-6.42;100.00;95495.77;645647;212;31604;-74
2022/03/05 04:49:32;;;;;;;0.80;0.70;;;-6.70;1.40;;;-6.19;100.00;95497.31;618828;222;31987;-75
2022/03/05 04:52:20;;;;;;;2.20;1.10;;;-6.40;1.40;;;-5.98;100.00;95498.55;620623;226;32247;-77
2022/03/05 04:55:05;;;;;;;1.00;1.00;;;-6.20;1.40;;;-5.76;100.00;95498.95;647571;212;31563;-77
2022/03/05 04:57:52;;;;;;;3.78;1.05;;;-6.00;1.40;;;-5.71;100.00;95496.63;633411;217;31781;-75
2022/03/05 05:00:34;;;;;;;1.00;0.70;;;-6.00;1.40;;;-5.46;100.00;95498.74;646339;216;31562;-76
2022/03/05 05:03:22;;;;;;;1.60;0.50;;;-5.90;1.40;;;-5.28;100.00;95498.80;647534;216;31506;-76
2022/03/05 05:08:40;;;;;;;1.35;1.25;;;-5.90;1.40;;;-5.20;100.00;95499.24;610178;222;32032;-76
2022/03/05 05:11:27;;;;;;;0.90;0.62;;;-5.90;1.40;;;-5.45;100.00;95499.13;643042;217;42136;-76
2022/03/05 05:14:15;;;;;;;1.12;1.02;;;-5.90;1.40;;;-5.59;100.00;95500.09;647076;212;31537;-75
2022/03/05 05:16:57;;;;;;;2.45;2.25;;;-6.20;1.40;;;-5.62;100.00;95506.75;646344;212;32146;-76
2022/03/05 05:19:38;;;;;;;1.40;1.30;;;-6.30;1.40;;;-5.54;100.00;95507.66;619418;225;33094;-75
2022/03/05 05:22:26;;;;;;;0.50;0.50;;;-6.20;1.40;;;-5.69;100.00;95501.98;646831;212;31572;-76
2022/03/05 05:25:14;;;;;;;2.40;0.90;;;-6.10;1.40;;;-5.73;100.00;95496.76;645803;216;31558;-72
2022/03/05 05:27:57;;;;;;;2.05;1.45;;;-6.20;1.40;;;-5.69;100.00;95498.44;646689;212;31520;-77
2022/03/05 05:30:45;;;;;;;1.40;0.80;;;-6.20;1.40;;;-5.87;100.00;95502.28;647682;216;31550;-74
2022/03/05 05:35:57;;;;;;;2.10;1.30;;;-6.50;1.40;;;-6.21;100.00;95500.76;646384;216;32148;-76
2022/03/05 05:38:41;;;;;;;0.85;0.65;;;-6.60;1.40;;;-6.30;100.00;95506.06;621130;222;31885;-76
2022/03/05 05:41:34;;;;;;;5.97;1.17;;;-6.70;1.40;;;-6.23;100.00;95511.87;647955;212;31530;-77
2022/03/05 05:44:21;;;;;;;1.40;0.88;;;-6.70;1.40;;;-6.34;100.00;95514.80;646149;216;31607;-73
2022/03/05 05:47:06;;;;;;;6.93;1.62;;;-6.80;1.40;;;-6.45;100.00;95518.13;646035;216;31570;-73
2022/03/05 05:49:48;;;;;;;1.75;1.12;;;-6.90;1.40;;;-6.42;100.00;95517.16;646685;216;31544;-76
2022/03/05 05:52:30;;;;;;;1.90;1.80;;;-6.90;1.40;;;-6.54;100.00;95515.67;619476;225;31912;-75
2022/03/05 05:55:11;;;;;;;1.90;1.52;;;-6.90;1.40;;;-6.53;100.00;95527.29;646439;216;31579;-73
2022/03/05 05:57:53;;;;;;;1.00;1.00;;;-7.00;1.40;;;-6.41;100.00;95521.62;647315;216;31546;-75
2022/03/05 06:00:35;;;;;;;1.37;1.27;;;-6.90;1.40;;;-6.51;100.00;95523.40;645936;212;31534;-77
2022/03/05 06:03:22;;;;;;;3.00;1.20;;;-7.00;1.40;;;-6.66;100.00;95531.49;647518;216;31548;-77
2022/03/05 06:06:04;;;;;;;2.20;1.77;;;-7.00;1.40;;;-6.56;100.00;95531.42;645584;212;31487;-77
2022/03/05 06:08:48;;;;;;;2.50;1.60;;;-7.00;1.40;;;-6.50;100.00;95535.70;645234;216;32257;-76
2022/03/05 06:11:30;;;;;;;3.20;1.00;;;-7.00;1.40;;;-6.57;100.00;95536.45;647220;216;32218;-76
2022/03/05 06:14:15;;;;;;;2.50;1.30;;;-7.00;1.40;;;-6.49;100.00;95536.38;645437;212;31715;-76
2022/03/05 06:16:57;;;;;;;1.40;1.12;;;-7.00;1.40;;;-6.44;100.00;95534.84;646417;216;31821;-76
2022/03/05 06:19:45;;;;;;;3.50;1.30;;;-6.90;1.40;;;-6.37;100.00;95536.50;620865;226;31991;-77
2022/03/05 06:22:26;;;;;;;0.88;0.75;;;-6.80;1.40;;;-6.33;100.00;95532.99;620459;226;32028;-77
2022/03/05 06:25:09;;;;;;;1.50;0.88;;;-6.80;1.40;;;-6.25;100.00;95537.69;647640;216;31702;-77
2022/03/05 06:27:57;;;;;;;5.82;2.47;;;-6.60;1.40;;;-5.98;100.00;95530.30;647078;216;31588;-75
2022/03/05 06:30:44;;;;;;;1.90;1.80;;;-6.30;1.40;;;-5.71;100.00;95531.60;646175;212;31603;-77
2022/03/05 06:35:52;;;;;;;2.97;1.60;;;-6.20;1.40;;;-5.64;100.00;95538.59;648137;216;31578;-76
2022/03/05 06:38:40;;;;;;;1.52;1.12;;;-6.20;1.40;;;-5.52;100.00;95543.17;647926;216;32098;-77
2022/03/05 06:41:27;;;;;;;1.37;1.20;;;-6.10;1.40;;;-5.42;100.00;95545.86;620050;226;31884;-74
2022/03/05 06:44:15;;;;;;;1.55;1.45;;;-6.00;1.40;;;-5.31;100.00;95550.28;647041;216;33179;-76
2022/03/05 06:46:57;;;;;;;0.73;0.57;;;-5.90;1.40;;;-5.13;100.00;95553.78;647038;216;31859;-77
2022/03/05 06:49:39;;;;;;;2.40;1.90;;;-5.80;1.40;;;-4.92;100.00;95558.45;648530;212;31599;-76
2022/03/05 06:52:20;;;;;;;0.70;0.70;;;-5.60;1.40;;;-4.79;100.00;95558.34;647252;212;31553;-76
2022/03/05 06:55:14;;;;;;;0.93;0.93;;;-5.50;1.40;;;-4.67;100.00;95557.50;645940;212;31603;-73
2022/03/05 06:57:56;;;;;;;2.67;0.77;;;-5.30;1.40;;;-4.52;100.00;95559.95;647423;212;31553;-78
2022/03/05 07:00:38;;;;;;;3.20;1.50;;;-5.10;1.40;;;-4.29;100.00;95568.41;647616;212;31495;-75
2022/03/05 07:03:19;;;;;;;3.40;1.60;;;-5.00;1.40;;;-4.13;100.00;95557.95;646918;216;31580;-76
2022/03/05 07:06:07;;;;;;;3.90;1.60;;;-4.80;1.40;;;-3.91;100.00;95561.85;646057;216;31614;-73
2022/03/05 07:08:50;;;;;;;1.30;0.68;;;-4.60;1.40;;;-3.73;100.00;95557.08;647968;213;31568;-77
2022/03/05 07:11:31;;;;;;;4.07;1.20;;;-4.40;1.40;;;-3.49;100.00;95556.08;647947;212;31597;-77
2022/03/05 07:14:16;;;;;;;2.62;1.67;;;-4.20;1.40;;;-3.15;100.00;95555.27;647417;212;31538;-77
2022/03/05 07:17:00;;;;;;;3.47;1.00;;;-4.00;1.40;;;-3.00;100.00;95553.64;647110;212;31539;-77
2022/03/05 07:19:42;;;;;;;2.70;1.40;;;-3.80;1.40;;;-2.75;100.00;95562.59;648395;216;31609;-78
2022/03/05 07:22:23;;;;;;;3.03;1.08;;;-3.60;1.40;;;-2.57;100.00;95562.39;648027;212;31529;-77
2022/03/05 07:25:11;;;;;;;2.80;2.30;;;-3.30;1.40;;;-2.38;100.00;95559.66;645617;216;42251;-75
2022/03/05 07:27:59;;;;;;;2.20;2.00;;;-3.10;1.40;;;-2.08;100.00;95566.00;646788;212;42199;-77
2022/03/05 07:30:42;;;;;;;2.10;2.00;;;-2.90;1.40;;;-1.86;100.00;95558.56;647502;212;31592;-77
2022/03/05 07:35:55;;;;;;;3.33;2.95;;;-2.60;1.40;;;-1.61;100.00;95562.27;647025;216;32168;-77
2022/03/05 07:38:43;;;;;;;3.20;2.45;;;-2.40;1.40;;;-1.38;100.00;95563.17;647083;216;31589;-76
2022/03/05 07:41:23;;;;;;;4.30;2.40;;;-2.20;1.40;;;-1.16;100.00;95562.47;646104;213;31540;-76
2022/03/05 07:44:08;;;;;;;2.65;1.87;;;-2.00;1.40;;;-1.17;100.00;95560.05;647780;216;32196;-77
2022/03/05 07:46:56;;;;;;;7.53;3.47;;;-1.90;1.40;;;-0.89;100.00;95561.79;645975;216;31587;-74
2022/03/05 07:49:38;;;;;;;5.78;2.58;;;-1.70;1.40;;;-0.61;100.00;95559.66;647326;212;31615;-74
2022/03/05 07:52:22;;;;;;;3.97;2.60;;;-1.60;1.40;;;-0.48;100.00;95555.44;646993;216;31582;-74
2022/03/05 07:55:04;;;;;;;5.50;3.60;;;-1.50;1.40;;;-0.57;100.00;95562.67;647816;216;42733;-74
2022/03/05 07:57:52;;;;;;;3.40;2.80;;;-1.30;1.40;;;-0.24;100.00;95560.95;646456;216;42573;-77
2022/03/05 08:00:39;;;;;;;2.75;2.08;;;-1.10;1.40;;;-0.05;100.00;95558.34;647054;212;32401;-78
2022/03/05 08:03:22;;;;;;;5.97;3.20;;;-1.00;1.40;;;0.29;100.00;95559.13;646742;212;31603;-78
2022/03/05 08:06:10;;;;;;;5.22;3.97;;;-0.70;1.40;;;0.50;100.00;95553.35;645181;212;31836;-77
2022/03/05 08:08:54;;;;;;;3.15;2.75;;;-0.60;1.40;;;0.61;100.00;95548.19;647550;216;31593;-76
2022/03/05 08:11:34;;;;;;;3.80;3.37;;;-0.40;1.40;;;0.65;100.00;95552.90;647268;212;31573;-76
2022/03/05 08:14:15;;;;;;;6.78;3.90;;;-0.20;1.40;;;0.56;100.00;95550.67;620720;222;32010;-76
2022/03/05 08:17:01;;;;;;;4.82;4.30;;;0.00;1.40;;;1.05;100.00;95549.64;646388;212;31956;-77
2022/03/05 08:19:43;;;;;;;6.53;4.50;;;0.30;1.40;;;1.44;100.00;95549.13;618145;222;31924;-76
2022/03/05 08:22:27;;;;;;;5.75;4.10;;;0.40;1.40;;;1.15;100.00;95552.83;646935;216;32318;-77
2022/03/05 08:25:09;;;;;;;5.43;4.18;;;0.40;1.40;;;1.16;100.00;95550.11;619859;222;32632;-76
2022/03/05 08:27:51;;;;;;;9.35;4.35;;;0.60;1.40;;;1.61;100.00;95551.69;647414;212;31659;-76
2022/03/05 08:30:33;;;;;;;4.30;3.90;;;1.00;1.40;;;1.98;100.00;95553.70;647694;212;31561;-76
2022/03/05 08:35:51;;;;;;;5.80;4.80;;;1.30;1.40;;;2.00;100.00;95553.61;646521;216;31632;-76
2022/03/05 08:38:34;;;;;;;7.33;4.80;;;1.30;1.40;;;1.76;100.00;95550.70;624438;226;27761;-76
2022/03/05 08:41:15;;;;;;;6.03;5.00;;;1.40;1.40;;;2.15;100.00;95548.80;646796;216;31559;-77
2022/03/05 08:43:57;;;;;;;6.30;5.00;;;1.70;1.40;;;2.32;100.00;95547.95;646731;212;32234;-76
2022/03/05 08:46:42;;;;;;;6.40;4.43;;;1.90;1.40;;;2.09;100.00;95538.89;647429;216;31713;-76
2022/03/05 08:49:23;;;;;;;4.72;3.58;;;1.70;1.40;;;2.26;100.00;95543.66;647329;216;31704;-75
2022/03/05 08:52:06;;;;;;;5.68;3.72;;;1.60;1.40;;;2.16;100.00;95545.92;631289;222;31740;-76
2022/03/05 08:54:47;;;;;;;5.37;4.65;;;1.80;1.40;;;2.68;100.00;95546.36;646160;216;32002;-76
2022/03/05 08:57:29;;;;;;;7.18;4.68;;;2.20;1.40;;;2.33;99.18;95549.42;647974;212;31660;-76
2022/03/05 09:00:11;;;;;;;4.68;4.25;;;1.80;1.40;;;2.03;99.24;95546.85;646598;212;31557;-76
2022/03/05 09:02:53;;;;;;;6.40;4.50;;;1.80;1.40;;;2.64;95.57;95547.61;618946;226;31933;-76
2022/03/05 09:05:38;;;;;;;5.82;4.12;;;2.40;1.40;;;3.27;93.23;95546.70;619884;222;32488;-76
2022/03/05 09:08:22;;;;;;;5.75;5.15;;;2.80;1.40;;;2.66;92.49;95545.05;646991;212;31676;-78
2022/03/05 09:11:03;;;;;;;8.20;4.85;;;2.50;1.40;;;4.38;88.52;95536.55;647211;216;31589;-77
2022/03/05 09:13:45;;;;;;;4.28;3.97;;;5.00;1.40;;;4.19;86.75;95542.89;647815;216;31580;-76
2022/03/05 09:16:27;;;;;;;8.73;5.30;;;5.90;1.40;;;7.50;76.17;95535.56;646620;216;42836;-77
2022/03/05 09:19:09;;;;;;;6.78;4.47;;;8.90;1.40;;;9.35;62.43;95521.83;619129;222;31893;-76
2022/03/05 09:21:53;;;;;;;7.40;4.97;;;9.50;1.40;;;10.01;59.14;95523.96;620404;225;31907;-77
2022/03/05 09:24:36;;;;;;;6.10;4.18;;;7.30;1.40;;;8.57;57.88;95519.55;618642;222;31899;-76
2022/03/05 09:27:27;;;;;;;9.00;6.00;;;7.80;1.40;;;6.43;62.97;95525.91;646487;212;31556;-77
2022/03/05 09:30:09;;;;;;;7.93;5.28;;;6.10;1.40;;;8.18;60.36;95522.34;647564;216;32089;-74
2022/03/05 09:32:53;;;;;;;8.60;4.53;;;7.60;1.40;;;9.58;55.97;95511.47;647046;216;42271;-78
2022/03/05 09:35:57;;;;;;;5.40;4.28;;;6.70;1.40;;;10.38;59.91;95511.69;645277;216;31688;-75
2022/03/05 09:38:45;;;;;;;6.60;4.87;;;9.50;1.40;;;11.50;57.10;95504.00;647385;212;31575;-77
2022/03/05 09:41:27;;;;;;;8.17;5.53;;;7.80;1.40;;;8.14;51.73;95514.98;648567;216;31769;-77
2022/03/05 09:44:14;;;;;;;6.60;4.27;;;5.50;1.40;;;9.03;55.38;95509.17;620244;222;31874;-76
2022/03/05 09:47:02;;;;;;;6.55;4.62;;;6.70;1.40;;;8.67;53.10;95519.41;642761;217;42137;-77
2022/03/05 09:52:18;;;;;;;5.80;3.87;;;2.80;1.40;;;3.53;63.19;95530.98;646283;212;31574;-76
2022/03/05 09:55:00;;;;;;;5.90;3.40;;;2.50;1.40;;;3.62;65.48;95525.46;620044;222;31953;-77
2022/03/05 09:57:42;;;;;;;5.10;4.47;;;2.70;1.40;;;4.75;66.87;95521.99;632042;222;31964;-76
2022/03/05 10:00:27;;;;;;;5.93;4.07;;;5.20;1.40;;;5.08;60.62;95524.08;647606;212;32240;-76
2022/03/05 10:03:09;;;;;;;5.32;3.60;;;4.40;1.40;;;7.80;55.00;95513.02;648151;212;31602;-77
2022/03/05 10:05:51;;;;;;;6.50;4.00;;;9.20;1.40;;;9.59;46.98;95510.53;647971;216;31613;-77
2022/03/05 10:08:41;;;;;;;4.70;4.00;;;7.20;1.40;;;5.36;54.59;95520.66;632210;216;31751;-75
2022/03/05 10:11:25;;;;;;;8.13;4.63;;;4.20;1.40;;;6.82;54.43;95512.77;647004;216;31596;-76
2022/03/05 10:14:16;;;;;;;5.80;4.30;;;5.40;1.40;;;8.14;54.56;95513.20;620555;222;31914;-77
2022/03/05 10:19:32;;;;;;;6.53;4.20;;;7.60;1.40;;;11.19;46.84;95504.70;647975;212;31576;-77
2022/03/05 10:22:14;;;;;;;6.40;4.17;;;10.50;1.40;;;10.97;44.72;95508.69;647557;212;31602;-76
2022/03/05 10:24:55;;;;;;;4.73;3.63;;;8.10;1.40;;;11.13;46.00;95507.75;646784;216;32032;-77
2022/03/05 10:27:37;;;;;;;5.83;3.90;;;8.80;1.40;;;10.38;43.38;95506.82;618822;222;31899;-77
2022/03/05 10:30:18;;;;;;;4.90;3.60;;;8.80;1.40;;;10.11;44.76;95510.96;647024;216;34042;-77
2022/03/05 10:33:01;;;;;;;4.68;3.70;;;8.30;1.40;;;11.00;44.49;95503.59;646690;216;31566;-78
2022/03/05 10:35:51;;;;;;;5.10;3.40;;;9.30;1.40;;;12.76;39.44;95495.91;643616;215;31568;-76
2022/03/05 10:38:49;;;;;;;6.40;4.20;;;10.20;1.40;;;12.15;41.18;95501.00;644679;216;32238;-74
2022/03/05 10:41:40;;;;;;;6.37;4.55;;;10.30;1.40;;;12.46;39.38;95502.36;648086;216;42205;-75
2022/03/05 10:44:24;;;;;;;4.40;3.47;;;10.80;1.40;;;14.04;37.92;95489.19;646979;216;31568;-77
2022/03/05 10:47:05;;;;;;;4.40;3.90;;;10.30;1.40;;;12.52;41.10;95492.28;647253;216;42491;-77
2022/03/05 10:49:56;;;;;;;5.37;3.83;;;8.40;1.40;;;12.15;39.26;95496.76;646798;216;31785;-74
2022/03/05 10:52:50;;;;;;;4.47;3.20;;;11.40;1.40;;;11.60;37.05;95492.69;646238;216;31589;-77
2022/03/05 10:55:36;;;;;;;3.85;3.40;;;10.00;1.40;;;15.66;33.46;95482.26;645559;216;31574;-78
2022/03/05 10:58:20;;;;;;;5.82;3.92;;;11.60;1.40;;;7.91;40.75;95504.46;647092;212;31611;-75
2022/03/05 11:01:04;;;;;;;5.40;3.28;;;6.00;1.40;;;11.42;40.13;95488.34;619835;226;31976;-77
2022/03/05 11:03:47;;;;;;;4.55;3.75;;;8.10;1.40;;;11.55;39.27;95491.35;648075;216;32210;-75
2022/03/05 11:06:29;;;;;;;5.47;3.45;;;8.30;1.40;;;11.66;38.71;95498.09;647661;212;32268;-76
2022/03/05 11:09:11;;;;;;;6.70;4.10;;;7.80;1.40;;;10.97;39.02;95492.97;619040;222;32161;-78
2022/03/05 11:11:56;;;;;;;6.68;4.43;;;7.20;1.40;;;7.64;47.25;95507.30;647731;216;42204;-75
2022/03/05 11:14:40;;;;;;;7.15;4.43;;;7.30;1.40;;;10.60;42.67;95493.02;647042;216;31546;-75
2022/03/05 11:17:38;;;;;;;8.27;4.40;;;7.50;1.40;;;10.55;39.51;95494.67;646231;212;42192;-77
2022/03/05 11:20:26;;;;;;;5.40;4.22;;;7.20;1.40;;;10.71;42.38;95493.88;646255;216;32708;-77
2022/03/05 11:23:17;;;;;;;7.47;4.20;;;9.30;1.40;;;12.64;39.14;95485.70;647558;215;31599;-76
2022/03/05 11:25:58;;;;;;;7.78;4.22;;;9.00;1.40;;;13.21;38.58;95483.23;645968;212;32524;-75
2022/03/05 11:28:45;;;;;;;4.60;3.20;;;12.30;1.40;;;16.37;34.76;95466.91;646056;216;31712;-75
2022/03/05 11:31:34;;;;;;;5.93;3.70;;;13.60;1.40;;;16.22;33.63;95477.52;647087;212;31622;-74
2022/03/05 11:36:03;;;;;;;5.05;4.05;;;13.50;1.40;;;18.91;31.15;95471.97;646337;216;31637;-74
2022/03/05 11:38:48;;;;;;;5.60;4.18;;;13.80;1.40;;;19.56;29.41;95460.87;646596;213;31559;-74
2022/03/05 11:41:30;;;;;;;5.40;3.90;;;13.40;99.90;;;15.69;32.98;95473.11;646424;216;31542;-74
2022/03/05 11:44:12;;;;;;;6.37;4.50;;;8.70;1.40;;;13.75;33.19;95471.86;646678;212;31564;-74
2022/03/05 11:47:22;;;;;;;5.43;3.93;;;7.30;1.40;;;14.19;34.54;95464.30;647189;212;31556;-75
2022/03/05 11:50:07;;;;;;;6.85;3.70;;;11.30;1.40;;;17.79;30.36;95446.86;646913;212;31624;-77
2022/03/05 11:53:03;;;;;;;6.35;4.28;;;14.30;1.40;;;18.75;28.54;95447.54;647647;212;31932;-75
2022/03/05 11:55:45;;;;;;;6.12;3.92;;;11.50;99.90;;;15.44;31.86;95456.96;619195;226;31890;-75
2022/03/05 11:58:26;;;;;;;5.15;3.65;;;10.10;99.90;;;13.85;33.53;95458.09;646328;212;31563;-74
2022/03/05 12:01:21;;;;;;;4.12;3.72;;;8.50;1.40;;;12.97;33.77;95463.27;620372;222;32048;-76
2022/03/05 12:05:34;;;;;;;6.32;3.70;;;5.80;1.40;;;10.19;37.55;95461.19;647259;216;42193;-77
2022/03/05 12:08:40;;;;;;;6.43;3.60;;;8.70;1.40;;;13.08;33.83;95446.19;646938;216;31545;-75
2022/03/05 12:11:22;;;;;;;5.20;3.75;;;11.50;99.90;;;13.84;31.85;95444.98;647384;212;32400;-75
2022/03/05 12:14:05;;;;;;;4.93;3.40;;;11.10;99.90;;;13.97;31.20;95438.80;646464;216;32353;-76